sensor_id;sensor_type;location;lat;lon;timestamp;P1;durP1;ratioP1;P2;durP2;ratioP2
18596;SDS011;9428;50.950;6.912;2023-09-30T00:00:06;13.07;;;4.53;;
18596;SDS011;9428;50.950;6.912;2023-09-30T00:02:54;13.80;;;4.40;;
18596;SDS011;9428;50.950;6.912;2023-09-30T00:05:42;10.63;;;3.97;;
18596;SDS011;9428;50.950;6.912;2023-09-30T00:08:30;11.80;;;4.45;;
18596;SDS011;9428;50.950;6.912;2023-09-30T00:11:17;12.68;;;4.30;;
18596;SDS011;9428;50.950;6.912;2023-09-30T00:14:05;10.88;;;3.70;;
18596;SDS011;9428;50.950;6.912;2023-09-30T00:16:52;8.63;;;3.97;;
18596;SDS011;9428;50.950;6.912;2023-09-30T00:19:40;11.70;;;4.43;;
18596;SDS011;9428;50.950;6.912;2023-09-30T00:22:27;6.50;;;3.05;;
18596;SDS011;9428;50.950;6.912;2023-09-30T00:25:16;12.50;;;4.75;;
18596;SDS011;9428;50.950;6.912;2023-09-30T00:28:03;20.83;;;4.25;;
18596;SDS011;9428;50.950;6.912;2023-09-30T00:30:51;8.40;;;3.72;;
18596;SDS011;9428;50.950;6.912;2023-09-30T00:33:38;11.75;;;3.40;;
18596;SDS011;9428;50.950;6.912;2023-09-30T00:36:25;11.15;;;3.97;;
18596;SDS011;9428;50.950;6.912;2023-09-30T00:39:13;10.15;;;4.05;;
18596;SDS011;9428;50.950;6.912;2023-09-30T00:42:02;15.63;;;4.57;;
18596;SDS011;9428;50.950;6.912;2023-09-30T00:44:50;20.50;;;5.85;;
18596;SDS011;9428;50.950;6.912;2023-09-30T00:47:37;15.52;;;5.20;;
18596;SDS011;9428;50.950;6.912;2023-09-30T00:50:25;20.33;;;5.18;;
18596;SDS011;9428;50.950;6.912;2023-09-30T00:53:14;23.70;;;6.75;;
18596;SDS011;9428;50.950;6.912;2023-09-30T00:56:01;12.65;;;4.32;;
18596;SDS011;9428;50.950;6.912;2023-09-30T00:58:50;10.88;;;4.25;;
18596;SDS011;9428;50.950;6.912;2023-09-30T01:01:38;10.68;;;4.18;;
18596;SDS011;9428;50.950;6.912;2023-09-30T01:04:26;9.02;;;3.92;;
18596;SDS011;9428;50.950;6.912;2023-09-30T01:07:14;9.57;;;3.88;;
18596;SDS011;9428;50.950;6.912;2023-09-30T01:10:01;10.98;;;3.85;;
18596;SDS011;9428;50.950;6.912;2023-09-30T01:12:49;10.15;;;4.57;;
18596;SDS011;9428;50.950;6.912;2023-09-30T01:15:37;19.50;;;5.47;;
18596;SDS011;9428;50.950;6.912;2023-09-30T01:18:24;18.27;;;5.47;;
18596;SDS011;9428;50.950;6.912;2023-09-30T01:21:12;15.50;;;6.28;;
18596;SDS011;9428;50.950;6.912;2023-09-30T01:24:00;17.15;;;6.05;;
18596;SDS011;9428;50.950;6.912;2023-09-30T01:26:48;11.50;;;4.03;;
18596;SDS011;9428;50.950;6.912;2023-09-30T01:29:35;11.10;;;3.60;;
18596;SDS011;9428;50.950;6.912;2023-09-30T01:32:23;8.82;;;3.78;;
18596;SDS011;9428;50.950;6.912;2023-09-30T01:35:10;16.23;;;4.47;;
18596;SDS011;9428;50.950;6.912;2023-09-30T01:37:58;15.38;;;5.75;;
18596;SDS011;9428;50.950;6.912;2023-09-30T01:40:47;13.38;;;4.13;;
18596;SDS011;9428;50.950;6.912;2023-09-30T01:43:34;10.32;;;4.40;;
18596;SDS011;9428;50.950;6.912;2023-09-30T01:46:23;13.88;;;4.47;;
18596;SDS011;9428;50.950;6.912;2023-09-30T01:49:10;13.48;;;4.68;;
18596;SDS011;9428;50.950;6.912;2023-09-30T01:51:57;13.68;;;4.38;;
18596;SDS011;9428;50.950;6.912;2023-09-30T01:54:44;16.27;;;5.50;;
18596;SDS011;9428;50.950;6.912;2023-09-30T01:57:33;16.58;;;4.88;;
18596;SDS011;9428;50.950;6.912;2023-09-30T02:00:20;13.80;;;4.10;;
18596;SDS011;9428;50.950;6.912;2023-09-30T02:03:07;14.13;;;4.70;;
18596;SDS011;9428;50.950;6.912;2023-09-30T02:05:55;9.18;;;4.70;;
18596;SDS011;9428;50.950;6.912;2023-09-30T02:08:42;11.63;;;3.95;;
18596;SDS011;9428;50.950;6.912;2023-09-30T02:11:29;8.02;;;3.58;;
18596;SDS011;9428;50.950;6.912;2023-09-30T02:14:18;10.27;;;3.63;;
18596;SDS011;9428;50.950;6.912;2023-09-30T02:17:06;14.10;;;4.13;;
18596;SDS011;9428;50.950;6.912;2023-09-30T02:19:54;6.65;;;3.38;;
18596;SDS011;9428;50.950;6.912;2023-09-30T02:22:42;10.48;;;4.50;;
18596;SDS011;9428;50.950;6.912;2023-09-30T02:25:30;13.70;;;4.63;;
18596;SDS011;9428;50.950;6.912;2023-09-30T02:28:18;19.27;;;5.68;;
18596;SDS011;9428;50.950;6.912;2023-09-30T02:31:07;29.17;;;7.35;;
18596;SDS011;9428;50.950;6.912;2023-09-30T02:33:54;18.13;;;6.05;;
18596;SDS011;9428;50.950;6.912;2023-09-30T02:36:42;11.57;;;4.40;;
18596;SDS011;9428;50.950;6.912;2023-09-30T02:39:31;11.30;;;4.43;;
18596;SDS011;9428;50.950;6.912;2023-09-30T02:42:18;10.57;;;4.78;;
18596;SDS011;9428;50.950;6.912;2023-09-30T02:45:10;11.50;;;5.20;;
18596;SDS011;9428;50.950;6.912;2023-09-30T02:47:59;10.10;;;4.05;;
18596;SDS011;9428;50.950;6.912;2023-09-30T02:50:46;9.23;;;4.30;;
18596;SDS011;9428;50.950;6.912;2023-09-30T02:53:33;9.43;;;4.57;;
18596;SDS011;9428;50.950;6.912;2023-09-30T02:56:21;16.42;;;5.45;;
18596;SDS011;9428;50.950;6.912;2023-09-30T02:59:09;9.45;;;4.50;;
18596;SDS011;9428;50.950;6.912;2023-09-30T03:01:56;15.85;;;4.40;;
18596;SDS011;9428;50.950;6.912;2023-09-30T03:04:45;8.75;;;5.00;;
18596;SDS011;9428;50.950;6.912;2023-09-30T03:07:33;13.32;;;5.57;;
18596;SDS011;9428;50.950;6.912;2023-09-30T03:10:21;11.10;;;5.40;;
18596;SDS011;9428;50.950;6.912;2023-09-30T03:13:09;9.60;;;4.90;;
18596;SDS011;9428;50.950;6.912;2023-09-30T03:15:56;13.45;;;4.65;;
18596;SDS011;9428;50.950;6.912;2023-09-30T03:18:43;10.73;;;4.63;;
18596;SDS011;9428;50.950;6.912;2023-09-30T03:21:32;13.57;;;5.03;;
18596;SDS011;9428;50.950;6.912;2023-09-30T03:24:20;11.05;;;5.35;;
18596;SDS011;9428;50.950;6.912;2023-09-30T03:27:08;15.77;;;5.75;;
18596;SDS011;9428;50.950;6.912;2023-09-30T03:29:58;11.35;;;4.43;;
18596;SDS011;9428;50.950;6.912;2023-09-30T03:32:46;10.60;;;5.18;;
18596;SDS011;9428;50.950;6.912;2023-09-30T03:35:33;9.02;;;4.85;;
18596;SDS011;9428;50.950;6.912;2023-09-30T03:38:23;18.35;;;6.00;;
18596;SDS011;9428;50.950;6.912;2023-09-30T03:41:11;18.00;;;5.88;;
18596;SDS011;9428;50.950;6.912;2023-09-30T03:43:59;24.08;;;7.20;;
18596;SDS011;9428;50.950;6.912;2023-09-30T03:46:47;14.32;;;6.60;;
18596;SDS011;9428;50.950;6.912;2023-09-30T03:49:34;23.75;;;7.00;;
18596;SDS011;9428;50.950;6.912;2023-09-30T03:52:23;32.25;;;9.23;;
18596;SDS011;9428;50.950;6.912;2023-09-30T03:55:13;33.78;;;8.80;;
18596;SDS011;9428;50.950;6.912;2023-09-30T03:58:01;32.00;;;9.00;;
18596;SDS011;9428;50.950;6.912;2023-09-30T04:00:49;18.42;;;7.03;;
18596;SDS011;9428;50.950;6.912;2023-09-30T04:03:37;23.92;;;6.88;;
18596;SDS011;9428;50.950;6.912;2023-09-30T04:06:25;26.25;;;6.38;;
18596;SDS011;9428;50.950;6.912;2023-09-30T04:09:14;10.27;;;5.53;;
18596;SDS011;9428;50.950;6.912;2023-09-30T04:12:03;13.05;;;5.45;;
18596;SDS011;9428;50.950;6.912;2023-09-30T04:14:51;13.20;;;5.35;;
18596;SDS011;9428;50.950;6.912;2023-09-30T04:17:38;9.82;;;4.85;;
18596;SDS011;9428;50.950;6.912;2023-09-30T04:20:26;9.38;;;4.57;;
18596;SDS011;9428;50.950;6.912;2023-09-30T04:23:14;13.27;;;4.82;;
18596;SDS011;9428;50.950;6.912;2023-09-30T04:26:01;14.80;;;4.85;;
18596;SDS011;9428;50.950;6.912;2023-09-30T04:28:52;13.68;;;4.93;;
18596;SDS011;9428;50.950;6.912;2023-09-30T04:31:39;25.58;;;7.00;;
18596;SDS011;9428;50.950;6.912;2023-09-30T04:34:27;38.88;;;8.43;;
18596;SDS011;9428;50.950;6.912;2023-09-30T04:37:14;24.77;;;7.00;;
18596;SDS011;9428;50.950;6.912;2023-09-30T04:40:03;39.97;;;8.40;;
18596;SDS011;9428;50.950;6.912;2023-09-30T04:43:00;34.70;;;8.48;;
18596;SDS011;9428;50.950;6.912;2023-09-30T04:45:49;46.88;;;10.07;;
18596;SDS011;9428;50.950;6.912;2023-09-30T04:48:38;37.85;;;8.93;;
18596;SDS011;9428;50.950;6.912;2023-09-30T04:51:25;29.15;;;9.45;;
18596;SDS011;9428;50.950;6.912;2023-09-30T04:54:13;19.35;;;8.30;;
18596;SDS011;9428;50.950;6.912;2023-09-30T04:57:00;15.20;;;7.10;;
18596;SDS011;9428;50.950;6.912;2023-09-30T04:59:47;16.25;;;6.43;;
18596;SDS011;9428;50.950;6.912;2023-09-30T05:02:36;14.70;;;6.80;;
18596;SDS011;9428;50.950;6.912;2023-09-30T05:05:24;13.32;;;5.65;;
18596;SDS011;9428;50.950;6.912;2023-09-30T05:08:11;16.77;;;6.55;;
18596;SDS011;9428;50.950;6.912;2023-09-30T05:10:59;12.98;;;6.28;;
18596;SDS011;9428;50.950;6.912;2023-09-30T05:13:47;18.73;;;6.65;;
18596;SDS011;9428;50.950;6.912;2023-09-30T05:16:34;14.27;;;6.78;;
18596;SDS011;9428;50.950;6.912;2023-09-30T05:19:23;20.17;;;7.50;;
18596;SDS011;9428;50.950;6.912;2023-09-30T05:22:12;14.05;;;6.18;;
18596;SDS011;9428;50.950;6.912;2023-09-30T05:24:59;14.05;;;6.03;;
18596;SDS011;9428;50.950;6.912;2023-09-30T05:27:46;15.93;;;6.72;;
18596;SDS011;9428;50.950;6.912;2023-09-30T05:30:34;14.95;;;6.35;;
18596;SDS011;9428;50.950;6.912;2023-09-30T05:33:21;13.90;;;6.57;;
18596;SDS011;9428;50.950;6.912;2023-09-30T05:36:10;16.00;;;6.03;;
18596;SDS011;9428;50.950;6.912;2023-09-30T05:38:58;11.20;;;6.32;;
18596;SDS011;9428;50.950;6.912;2023-09-30T05:41:46;13.25;;;6.20;;
18596;SDS011;9428;50.950;6.912;2023-09-30T05:44:33;14.00;;;6.15;;
18596;SDS011;9428;50.950;6.912;2023-09-30T05:47:20;11.18;;;6.18;;
18596;SDS011;9428;50.950;6.912;2023-09-30T05:50:08;10.55;;;6.25;;
18596;SDS011;9428;50.950;6.912;2023-09-30T05:53:01;10.13;;;5.57;;
18596;SDS011;9428;50.950;6.912;2023-09-30T05:55:50;13.45;;;6.63;;
18596;SDS011;9428;50.950;6.912;2023-09-30T05:58:37;13.48;;;6.07;;
18596;SDS011;9428;50.950;6.912;2023-09-30T06:01:24;14.75;;;6.45;;
18596;SDS011;9428;50.950;6.912;2023-09-30T06:04:13;10.15;;;5.70;;
18596;SDS011;9428;50.950;6.912;2023-09-30T06:07:00;11.32;;;6.32;;
18596;SDS011;9428;50.950;6.912;2023-09-30T06:09:49;11.15;;;5.88;;
18596;SDS011;9428;50.950;6.912;2023-09-30T06:12:36;10.85;;;5.70;;
18596;SDS011;9428;50.950;6.912;2023-09-30T06:15:23;16.95;;;6.85;;
18596;SDS011;9428;50.950;6.912;2023-09-30T06:18:12;20.55;;;6.32;;
18596;SDS011;9428;50.950;6.912;2023-09-30T06:21:00;15.93;;;6.63;;
18596;SDS011;9428;50.950;6.912;2023-09-30T06:23:49;16.42;;;5.68;;
18596;SDS011;9428;50.950;6.912;2023-09-30T06:26:38;11.98;;;5.47;;
18596;SDS011;9428;50.950;6.912;2023-09-30T06:29:25;14.75;;;5.78;;
18596;SDS011;9428;50.950;6.912;2023-09-30T06:32:14;11.82;;;5.47;;
18596;SDS011;9428;50.950;6.912;2023-09-30T06:35:02;19.10;;;6.53;;
18596;SDS011;9428;50.950;6.912;2023-09-30T06:37:49;14.13;;;6.15;;
18596;SDS011;9428;50.950;6.912;2023-09-30T06:40:36;15.73;;;5.97;;
18596;SDS011;9428;50.950;6.912;2023-09-30T06:43:29;16.58;;;6.10;;
18596;SDS011;9428;50.950;6.912;2023-09-30T06:46:18;12.18;;;6.70;;
18596;SDS011;9428;50.950;6.912;2023-09-30T06:49:05;12.23;;;5.90;;
18596;SDS011;9428;50.950;6.912;2023-09-30T06:51:53;12.43;;;5.97;;
18596;SDS011;9428;50.950;6.912;2023-09-30T06:54:40;15.77;;;6.28;;
18596;SDS011;9428;50.950;6.912;2023-09-30T06:57:27;14.10;;;6.97;;
18596;SDS011;9428;50.950;6.912;2023-09-30T07:00:16;11.43;;;5.78;;
18596;SDS011;9428;50.950;6.912;2023-09-30T07:03:04;12.02;;;6.57;;
18596;SDS011;9428;50.950;6.912;2023-09-30T07:05:51;15.88;;;7.35;;
18596;SDS011;9428;50.950;6.912;2023-09-30T07:08:39;15.27;;;6.90;;
18596;SDS011;9428;50.950;6.912;2023-09-30T07:11:27;18.88;;;8.95;;
18596;SDS011;9428;50.950;6.912;2023-09-30T07:14:15;12.75;;;7.60;;
18596;SDS011;9428;50.950;6.912;2023-09-30T07:17:04;13.10;;;7.65;;
18596;SDS011;9428;50.950;6.912;2023-09-30T07:19:51;17.13;;;7.47;;
18596;SDS011;9428;50.950;6.912;2023-09-30T07:22:39;13.00;;;7.97;;
18596;SDS011;9428;50.950;6.912;2023-09-30T07:25:26;13.75;;;8.00;;
18596;SDS011;9428;50.950;6.912;2023-09-30T07:28:13;17.75;;;8.77;;
18596;SDS011;9428;50.950;6.912;2023-09-30T07:31:00;15.50;;;9.32;;
18596;SDS011;9428;50.950;6.912;2023-09-30T07:33:49;15.70;;;8.55;;
18596;SDS011;9428;50.950;6.912;2023-09-30T07:36:37;15.18;;;9.55;;
18596;SDS011;9428;50.950;6.912;2023-09-30T07:39:24;13.95;;;8.43;;
18596;SDS011;9428;50.950;6.912;2023-09-30T07:42:11;11.70;;;8.35;;
18596;SDS011;9428;50.950;6.912;2023-09-30T07:44:58;14.98;;;8.35;;
18596;SDS011;9428;50.950;6.912;2023-09-30T07:47:46;16.85;;;8.55;;
18596;SDS011;9428;50.950;6.912;2023-09-30T07:50:36;16.90;;;9.18;;
18596;SDS011;9428;50.950;6.912;2023-09-30T07:53:23;12.82;;;8.75;;
18596;SDS011;9428;50.950;6.912;2023-09-30T07:56:11;17.02;;;9.23;;
18596;SDS011;9428;50.950;6.912;2023-09-30T07:58:58;16.33;;;9.77;;
18596;SDS011;9428;50.950;6.912;2023-09-30T08:01:47;14.18;;;8.90;;
18596;SDS011;9428;50.950;6.912;2023-09-30T08:04:34;14.32;;;8.52;;
18596;SDS011;9428;50.950;6.912;2023-09-30T08:07:23;14.38;;;8.55;;
18596;SDS011;9428;50.950;6.912;2023-09-30T08:10:10;17.00;;;9.68;;
18596;SDS011;9428;50.950;6.912;2023-09-30T08:12:59;16.10;;;9.02;;
18596;SDS011;9428;50.950;6.912;2023-09-30T08:15:48;13.25;;;8.27;;
18596;SDS011;9428;50.950;6.912;2023-09-30T08:18:35;18.25;;;8.80;;
18596;SDS011;9428;50.950;6.912;2023-09-30T08:21:23;14.27;;;8.73;;
18596;SDS011;9428;50.950;6.912;2023-09-30T08:24:11;15.48;;;9.20;;
18596;SDS011;9428;50.950;6.912;2023-09-30T08:26:58;13.15;;;8.90;;
18596;SDS011;9428;50.950;6.912;2023-09-30T08:29:46;18.13;;;8.85;;
18596;SDS011;9428;50.950;6.912;2023-09-30T08:32:34;14.10;;;8.68;;
18596;SDS011;9428;50.950;6.912;2023-09-30T08:35:22;15.82;;;10.25;;
18596;SDS011;9428;50.950;6.912;2023-09-30T08:38:09;18.10;;;8.90;;
18596;SDS011;9428;50.950;6.912;2023-09-30T08:40:57;18.27;;;9.73;;
18596;SDS011;9428;50.950;6.912;2023-09-30T08:43:45;15.20;;;9.90;;
18596;SDS011;9428;50.950;6.912;2023-09-30T08:46:34;14.85;;;8.88;;
18596;SDS011;9428;50.950;6.912;2023-09-30T08:49:21;12.60;;;8.40;;
18596;SDS011;9428;50.950;6.912;2023-09-30T08:52:10;14.35;;;8.68;;
18596;SDS011;9428;50.950;6.912;2023-09-30T08:55:02;16.80;;;9.20;;
18596;SDS011;9428;50.950;6.912;2023-09-30T08:57:53;16.48;;;9.90;;
18596;SDS011;9428;50.950;6.912;2023-09-30T09:00:42;15.50;;;9.27;;
18596;SDS011;9428;50.950;6.912;2023-09-30T09:03:30;16.90;;;8.77;;
18596;SDS011;9428;50.950;6.912;2023-09-30T09:06:18;16.27;;;10.02;;
18596;SDS011;9428;50.950;6.912;2023-09-30T09:09:15;14.52;;;10.18;;
18596;SDS011;9428;50.950;6.912;2023-09-30T09:12:04;14.98;;;8.65;;
18596;SDS011;9428;50.950;6.912;2023-09-30T09:14:53;12.80;;;8.55;;
18596;SDS011;9428;50.950;6.912;2023-09-30T09:17:40;18.15;;;9.18;;
18596;SDS011;9428;50.950;6.912;2023-09-30T09:20:29;13.82;;;9.32;;
18596;SDS011;9428;50.950;6.912;2023-09-30T09:23:16;15.90;;;11.20;;
18596;SDS011;9428;50.950;6.912;2023-09-30T09:26:03;20.55;;;13.00;;
18596;SDS011;9428;50.950;6.912;2023-09-30T09:28:55;17.17;;;10.48;;
18596;SDS011;9428;50.950;6.912;2023-09-30T09:31:45;16.63;;;10.15;;
18596;SDS011;9428;50.950;6.912;2023-09-30T09:34:32;17.63;;;10.60;;
18596;SDS011;9428;50.950;6.912;2023-09-30T09:37:20;20.70;;;10.80;;
18596;SDS011;9428;50.950;6.912;2023-09-30T09:40:10;22.40;;;10.60;;
18596;SDS011;9428;50.950;6.912;2023-09-30T09:42:59;18.38;;;10.48;;
18596;SDS011;9428;50.950;6.912;2023-09-30T09:45:49;13.55;;;8.80;;
18596;SDS011;9428;50.950;6.912;2023-09-30T09:48:38;18.45;;;9.68;;
18596;SDS011;9428;50.950;6.912;2023-09-30T09:51:26;14.27;;;9.43;;
18596;SDS011;9428;50.950;6.912;2023-09-30T09:54:13;18.90;;;9.73;;
18596;SDS011;9428;50.950;6.912;2023-09-30T09:57:01;15.20;;;8.82;;
18596;SDS011;9428;50.950;6.912;2023-09-30T09:59:51;18.88;;;9.98;;
18596;SDS011;9428;50.950;6.912;2023-09-30T10:02:41;20.13;;;11.73;;
18596;SDS011;9428;50.950;6.912;2023-09-30T10:05:29;20.08;;;11.73;;
18596;SDS011;9428;50.950;6.912;2023-09-30T10:08:17;17.58;;;11.35;;
18596;SDS011;9428;50.950;6.912;2023-09-30T10:11:09;21.60;;;12.38;;
18596;SDS011;9428;50.950;6.912;2023-09-30T10:14:03;16.27;;;10.38;;
18596;SDS011;9428;50.950;6.912;2023-09-30T10:16:52;15.25;;;9.27;;
18596;SDS011;9428;50.950;6.912;2023-09-30T10:23:04;16.90;;;9.60;;
18596;SDS011;9428;50.950;6.912;2023-09-30T10:26:14;14.70;;;9.25;;
18596;SDS011;9428;50.950;6.912;2023-09-30T10:29:08;17.83;;;8.95;;
18596;SDS011;9428;50.950;6.912;2023-09-30T10:31:56;11.38;;;8.27;;
18596;SDS011;9428;50.950;6.912;2023-09-30T10:34:47;13.77;;;7.43;;
18596;SDS011;9428;50.950;6.912;2023-09-30T10:37:35;15.35;;;8.07;;
18596;SDS011;9428;50.950;6.912;2023-09-30T10:40:27;14.65;;;8.60;;
18596;SDS011;9428;50.950;6.912;2023-09-30T10:43:28;12.05;;;8.15;;
18596;SDS011;9428;50.950;6.912;2023-09-30T10:46:31;12.75;;;7.57;;
18596;SDS011;9428;50.950;6.912;2023-09-30T10:49:33;11.68;;;6.45;;
18596;SDS011;9428;50.950;6.912;2023-09-30T10:52:24;12.00;;;7.00;;
18596;SDS011;9428;50.950;6.912;2023-09-30T10:55:12;16.35;;;6.88;;
18596;SDS011;9428;50.950;6.912;2023-09-30T10:58:07;10.65;;;6.35;;
18596;SDS011;9428;50.950;6.912;2023-09-30T11:00:55;8.70;;;4.10;;
18596;SDS011;9428;50.950;6.912;2023-09-30T11:03:43;7.05;;;3.67;;
18596;SDS011;9428;50.950;6.912;2023-09-30T11:06:31;7.93;;;3.65;;
18596;SDS011;9428;50.950;6.912;2023-09-30T11:09:19;12.90;;;6.28;;
18596;SDS011;9428;50.950;6.912;2023-09-30T11:12:13;8.93;;;4.45;;
18596;SDS011;9428;50.950;6.912;2023-09-30T11:15:02;6.35;;;3.03;;
18596;SDS011;9428;50.950;6.912;2023-09-30T11:17:51;8.95;;;4.25;;
18596;SDS011;9428;50.950;6.912;2023-09-30T11:20:38;7.63;;;3.72;;
18596;SDS011;9428;50.950;6.912;2023-09-30T11:23:26;9.63;;;4.10;;
18596;SDS011;9428;50.950;6.912;2023-09-30T11:26:13;7.40;;;3.70;;
18596;SDS011;9428;50.950;6.912;2023-09-30T11:29:04;5.07;;;3.17;;
18596;SDS011;9428;50.950;6.912;2023-09-30T11:31:54;7.50;;;3.33;;
18596;SDS011;9428;50.950;6.912;2023-09-30T11:34:41;4.93;;;3.10;;
18596;SDS011;9428;50.950;6.912;2023-09-30T11:37:32;7.85;;;3.92;;
18596;SDS011;9428;50.950;6.912;2023-09-30T11:40:20;6.38;;;3.30;;
18596;SDS011;9428;50.950;6.912;2023-09-30T11:43:08;8.07;;;3.55;;
18596;SDS011;9428;50.950;6.912;2023-09-30T11:46:04;7.63;;;4.05;;
18596;SDS011;9428;50.950;6.912;2023-09-30T11:48:57;9.02;;;4.30;;
18596;SDS011;9428;50.950;6.912;2023-09-30T11:51:46;8.00;;;3.72;;
18596;SDS011;9428;50.950;6.912;2023-09-30T11:54:35;6.93;;;3.47;;
18596;SDS011;9428;50.950;6.912;2023-09-30T11:57:26;8.80;;;3.33;;
18596;SDS011;9428;50.950;6.912;2023-09-30T12:00:14;5.57;;;2.83;;
18596;SDS011;9428;50.950;6.912;2023-09-30T12:03:02;6.22;;;2.92;;
18596;SDS011;9428;50.950;6.912;2023-09-30T12:05:51;7.38;;;3.00;;
18596;SDS011;9428;50.950;6.912;2023-09-30T12:08:40;5.03;;;2.65;;
18596;SDS011;9428;50.950;6.912;2023-09-30T12:11:27;7.15;;;2.88;;
18596;SDS011;9428;50.950;6.912;2023-09-30T12:14:15;8.00;;;3.10;;
18596;SDS011;9428;50.950;6.912;2023-09-30T12:17:02;7.93;;;2.78;;
18596;SDS011;9428;50.950;6.912;2023-09-30T12:19:52;8.77;;;3.50;;
18596;SDS011;9428;50.950;6.912;2023-09-30T12:22:41;6.70;;;2.63;;
18596;SDS011;9428;50.950;6.912;2023-09-30T12:25:28;6.45;;;2.80;;
18596;SDS011;9428;50.950;6.912;2023-09-30T12:28:15;7.03;;;3.03;;
18596;SDS011;9428;50.950;6.912;2023-09-30T12:31:03;5.70;;;2.53;;
18596;SDS011;9428;50.950;6.912;2023-09-30T12:33:50;6.85;;;2.88;;
18596;SDS011;9428;50.950;6.912;2023-09-30T12:36:39;5.45;;;2.80;;
18596;SDS011;9428;50.950;6.912;2023-09-30T12:39:28;6.60;;;2.47;;
18596;SDS011;9428;50.950;6.912;2023-09-30T12:42:18;8.93;;;2.85;;
18596;SDS011;9428;50.950;6.912;2023-09-30T12:45:06;9.52;;;3.80;;
18596;SDS011;9428;50.950;6.912;2023-09-30T12:47:53;7.25;;;3.13;;
18596;SDS011;9428;50.950;6.912;2023-09-30T12:50:42;9.35;;;3.38;;
18596;SDS011;9428;50.950;6.912;2023-09-30T12:53:29;9.05;;;3.30;;
18596;SDS011;9428;50.950;6.912;2023-09-30T12:56:19;5.97;;;3.08;;
18596;SDS011;9428;50.950;6.912;2023-09-30T12:59:06;4.88;;;2.60;;
18596;SDS011;9428;50.950;6.912;2023-09-30T13:01:53;14.23;;;6.95;;
18596;SDS011;9428;50.950;6.912;2023-09-30T13:04:41;12.07;;;5.15;;
18596;SDS011;9428;50.950;6.912;2023-09-30T13:07:30;9.70;;;4.05;;
18596;SDS011;9428;50.950;6.912;2023-09-30T13:10:18;7.22;;;3.20;;
18596;SDS011;9428;50.950;6.912;2023-09-30T13:13:06;8.13;;;3.17;;
18596;SDS011;9428;50.950;6.912;2023-09-30T13:15:54;6.65;;;3.35;;
18596;SDS011;9428;50.950;6.912;2023-09-30T13:18:41;6.72;;;3.25;;
18596;SDS011;9428;50.950;6.912;2023-09-30T13:21:28;8.60;;;3.47;;
18596;SDS011;9428;50.950;6.912;2023-09-30T13:24:16;6.15;;;3.40;;
18596;SDS011;9428;50.950;6.912;2023-09-30T13:27:03;10.10;;;4.15;;
18596;SDS011;9428;50.950;6.912;2023-09-30T13:29:52;6.10;;;2.78;;
18596;SDS011;9428;50.950;6.912;2023-09-30T13:32:42;7.45;;;2.60;;
18596;SDS011;9428;50.950;6.912;2023-09-30T13:35:29;8.00;;;2.58;;
18596;SDS011;9428;50.950;6.912;2023-09-30T13:38:17;6.85;;;2.35;;
18596;SDS011;9428;50.950;6.912;2023-09-30T13:41:04;6.95;;;2.70;;
18596;SDS011;9428;50.950;6.912;2023-09-30T13:43:51;4.93;;;2.38;;
18596;SDS011;9428;50.950;6.912;2023-09-30T13:46:40;7.20;;;2.38;;
18596;SDS011;9428;50.950;6.912;2023-09-30T13:49:27;8.75;;;3.65;;
18596;SDS011;9428;50.950;6.912;2023-09-30T13:52:15;4.93;;;2.72;;
18596;SDS011;9428;50.950;6.912;2023-09-30T13:55:03;6.45;;;2.90;;
18596;SDS011;9428;50.950;6.912;2023-09-30T13:57:51;8.05;;;2.92;;
18596;SDS011;9428;50.950;6.912;2023-09-30T14:00:39;5.82;;;2.55;;
18596;SDS011;9428;50.950;6.912;2023-09-30T14:03:28;6.75;;;3.03;;
18596;SDS011;9428;50.950;6.912;2023-09-30T14:06:15;5.18;;;2.58;;
18596;SDS011;9428;50.950;6.912;2023-09-30T14:09:03;5.80;;;2.22;;
18596;SDS011;9428;50.950;6.912;2023-09-30T14:11:50;5.70;;;2.30;;
18596;SDS011;9428;50.950;6.912;2023-09-30T14:14:37;5.60;;;2.70;;
18596;SDS011;9428;50.950;6.912;2023-09-30T14:17:25;4.53;;;2.42;;
18596;SDS011;9428;50.950;6.912;2023-09-30T14:20:13;6.28;;;2.45;;
18596;SDS011;9428;50.950;6.912;2023-09-30T14:23:00;5.28;;;2.30;;
18596;SDS011;9428;50.950;6.912;2023-09-30T14:25:48;6.70;;;2.22;;
18596;SDS011;9428;50.950;6.912;2023-09-30T14:28:35;9.10;;;2.65;;
18596;SDS011;9428;50.950;6.912;2023-09-30T14:31:23;5.03;;;2.30;;
18596;SDS011;9428;50.950;6.912;2023-09-30T14:34:10;7.45;;;2.45;;
18596;SDS011;9428;50.950;6.912;2023-09-30T14:36:59;7.95;;;3.40;;
18596;SDS011;9428;50.950;6.912;2023-09-30T14:39:46;5.78;;;3.38;;
18596;SDS011;9428;50.950;6.912;2023-09-30T14:42:33;6.80;;;3.08;;
18596;SDS011;9428;50.950;6.912;2023-09-30T14:45:20;9.27;;;4.15;;
18596;SDS011;9428;50.950;6.912;2023-09-30T14:48:08;8.18;;;4.78;;
18596;SDS011;9428;50.950;6.912;2023-09-30T14:50:56;8.43;;;4.05;;
18596;SDS011;9428;50.950;6.912;2023-09-30T14:53:45;5.07;;;2.50;;
18596;SDS011;9428;50.950;6.912;2023-09-30T14:56:32;6.95;;;2.65;;
18596;SDS011;9428;50.950;6.912;2023-09-30T14:59:19;5.82;;;2.53;;
18596;SDS011;9428;50.950;6.912;2023-09-30T15:02:06;7.63;;;3.00;;
18596;SDS011;9428;50.950;6.912;2023-09-30T15:04:56;3.10;;;2.10;;
18596;SDS011;9428;50.950;6.912;2023-09-30T15:07:43;8.70;;;2.97;;
18596;SDS011;9428;50.950;6.912;2023-09-30T15:10:35;8.38;;;2.90;;
18596;SDS011;9428;50.950;6.912;2023-09-30T15:13:22;10.00;;;2.80;;
18596;SDS011;9428;50.950;6.912;2023-09-30T15:16:14;5.63;;;2.60;;
18596;SDS011;9428;50.950;6.912;2023-09-30T15:19:02;11.50;;;2.60;;
18596;SDS011;9428;50.950;6.912;2023-09-30T15:21:50;4.07;;;2.13;;
18596;SDS011;9428;50.950;6.912;2023-09-30T15:24:37;6.90;;;2.50;;
18596;SDS011;9428;50.950;6.912;2023-09-30T15:27:26;4.13;;;2.38;;
18596;SDS011;9428;50.950;6.912;2023-09-30T15:30:13;4.13;;;2.17;;
18596;SDS011;9428;50.950;6.912;2023-09-30T15:33:01;6.10;;;2.33;;
18596;SDS011;9428;50.950;6.912;2023-09-30T15:35:48;3.95;;;2.38;;
18596;SDS011;9428;50.950;6.912;2023-09-30T15:38:35;8.20;;;2.60;;
18596;SDS011;9428;50.950;6.912;2023-09-30T15:41:23;3.78;;;1.80;;
18596;SDS011;9428;50.950;6.912;2023-09-30T15:44:12;6.00;;;2.65;;
18596;SDS011;9428;50.950;6.912;2023-09-30T15:46:59;5.43;;;2.58;;
18596;SDS011;9428;50.950;6.912;2023-09-30T15:49:46;6.10;;;2.45;;
18596;SDS011;9428;50.950;6.912;2023-09-30T15:52:34;5.88;;;2.30;;
18596;SDS011;9428;50.950;6.912;2023-09-30T15:55:21;5.22;;;2.50;;
18596;SDS011;9428;50.950;6.912;2023-09-30T15:58:08;6.45;;;2.53;;
18596;SDS011;9428;50.950;6.912;2023-09-30T16:00:57;4.85;;;2.28;;
18596;SDS011;9428;50.950;6.912;2023-09-30T16:03:45;4.47;;;2.50;;
18596;SDS011;9428;50.950;6.912;2023-09-30T16:06:32;6.18;;;2.55;;
18596;SDS011;9428;50.950;6.912;2023-09-30T16:09:20;3.25;;;2.42;;
18596;SDS011;9428;50.950;6.912;2023-09-30T16:12:07;5.35;;;2.35;;
18596;SDS011;9428;50.950;6.912;2023-09-30T16:14:55;6.25;;;2.53;;
18596;SDS011;9428;50.950;6.912;2023-09-30T16:17:43;7.38;;;3.15;;
18596;SDS011;9428;50.950;6.912;2023-09-30T16:20:31;9.40;;;3.03;;
18596;SDS011;9428;50.950;6.912;2023-09-30T16:23:18;7.30;;;4.00;;
18596;SDS011;9428;50.950;6.912;2023-09-30T16:26:05;8.45;;;3.90;;
18596;SDS011;9428;50.950;6.912;2023-09-30T16:28:52;6.93;;;3.60;;
18596;SDS011;9428;50.950;6.912;2023-09-30T16:31:39;8.45;;;3.30;;
18596;SDS011;9428;50.950;6.912;2023-09-30T16:34:28;9.00;;;3.40;;
18596;SDS011;9428;50.950;6.912;2023-09-30T16:37:15;7.07;;;2.78;;
18596;SDS011;9428;50.950;6.912;2023-09-30T16:40:03;7.03;;;3.70;;
18596;SDS011;9428;50.950;6.912;2023-09-30T16:42:52;8.43;;;3.60;;
18596;SDS011;9428;50.950;6.912;2023-09-30T16:45:40;7.28;;;3.33;;
18596;SDS011;9428;50.950;6.912;2023-09-30T16:48:28;4.57;;;2.72;;
18596;SDS011;9428;50.950;6.912;2023-09-30T16:51:17;7.15;;;3.45;;
18596;SDS011;9428;50.950;6.912;2023-09-30T16:54:05;5.43;;;3.00;;
18596;SDS011;9428;50.950;6.912;2023-09-30T16:56:53;4.95;;;3.00;;
18596;SDS011;9428;50.950;6.912;2023-09-30T16:59:43;7.00;;;3.33;;
18596;SDS011;9428;50.950;6.912;2023-09-30T17:02:31;9.77;;;4.57;;